»·PEaware :: QXE1690 KAMA-KABQ

QXE1690 :: KAMA-KABQ

FLIGHT INFORMATION

Flight Status: Arrived
Operator:
Horizon Air
More flights by this operator :: More flights under this callsign
Pilot: Anthony C. (4651)
Aircraft: DEHAVILLAND DASH 8 400
(DH8D)
More flights by this aircraft type
Origin: KAMA Amarillo Intl
United States
Destination: KABQ Albuquerque Intl Sunport
United States
More flights between these airports :: More routes between these airports
Route: +TCC MIERA2
File this flight plan on PilotEdge
Remarks:
Altitude:
(Current/Filed)
200ft
Speed:
(Current/Filed)
350kts
Departed: 11-Aug-17 07:33 AM
Arrived: 11-Aug-17 08:40 AM
Distance/Time
Traveled:
240nm/1:07
Distance/Time
To Go:
Arrived

Flight Plot

Page will automatically refresh every two minutes.

Flight plan parsing failed; only flown route is shown


Map Options




Map Legend


Flown Route
Filed Route
Departure Airport
Arrival Airport
Navaid (VOR, NDB)
Fix

Horizontal Profiles

Position Reports

Time Latitude Longitude Heading Altitude Ground
Speed
11-Aug-17 06:58 35.215820 -101.711814 135 3614ft 0kts
11-Aug-17 06:59 35.215820 -101.711814 135 3614ft 0kts
11-Aug-17 07:00 35.215820 -101.711814 135 3614ft 0kts
11-Aug-17 07:01 35.215820 -101.711814 135 3614ft 0kts
11-Aug-17 07:03 35.215820 -101.711814 135 3614ft 0kts
11-Aug-17 07:04 35.215820 -101.711814 135 3614ft 0kts
11-Aug-17 07:05 35.215820 -101.711814 135 3614ft 0kts
11-Aug-17 07:06 35.215820 -101.711814 135 3614ft 0kts
11-Aug-17 07:07 35.215820 -101.711814 135 3614ft 0kts
11-Aug-17 07:08 35.215820 -101.711814 135 3614ft 0kts
11-Aug-17 07:09 35.215820 -101.711814 135 3614ft 0kts
11-Aug-17 07:10 35.215820 -101.711814 135 3614ft 0kts
11-Aug-17 07:11 35.215820 -101.711814 135 3614ft 0kts
11-Aug-17 07:12 35.215820 -101.711814 135 3614ft 0kts
11-Aug-17 07:13 35.215820 -101.711814 135 3614ft 0kts
11-Aug-17 07:13 35.215820 -101.711814 135 3614ft 0kts
11-Aug-17 07:15 35.215820 -101.711814 135 3614ft 0kts
11-Aug-17 07:16 35.215820 -101.711814 135 3614ft 0kts
11-Aug-17 07:17 35.215820 -101.711814 135 3614ft 0kts
11-Aug-17 07:18 35.215820 -101.711814 135 3614ft 0kts
11-Aug-17 07:19 35.215820 -101.711814 135 3614ft 0kts
11-Aug-17 07:20 35.215820 -101.711814 135 3614ft 0kts
11-Aug-17 07:21 35.215820 -101.711814 135 3614ft 0kts
11-Aug-17 07:21 35.215820 -101.711814 135 3614ft 0kts
11-Aug-17 07:22 35.215820 -101.711814 135 3614ft 0kts
11-Aug-17 07:23 35.215820 -101.711814 135 3614ft 0kts
11-Aug-17 07:24 35.215820 -101.711814 135 3614ft 0kts
11-Aug-17 07:25 35.215822 -101.711816 135 3614ft 0kts
11-Aug-17 07:26 35.216052 -101.711854 219 3614ft 0kts
11-Aug-17 07:27 35.216119 -101.712753 301 3614ft 5kts
11-Aug-17 07:28 35.216143 -101.715168 226 3614ft 10kts
11-Aug-17 07:29 35.213713 -101.718267 226 3614ft 15kts
11-Aug-17 07:30 35.211201 -101.721414 225 3614ft 11kts
11-Aug-17 07:31 35.209006 -101.724213 226 3614ft 13kts
11-Aug-17 07:32 35.206003 -101.728010 226 3614ft 16kts
11-Aug-17 07:33 35.204144 -101.731241 314 3614ft 0kts
11-Aug-17 07:34 35.204144 -101.731241 314 3614ft 0kts
11-Aug-17 07:35 35.206315 -101.731294 43 3614ft 34kts
11-Aug-17 07:36 35.229888 -101.700597 46 4484ft 165kts
11-Aug-17 07:37 35.265553 -101.651786 44 6371ft 210kts
11-Aug-17 07:38 35.307071 -101.599038 45 8561ft 224kts
11-Aug-17 07:39 35.350504 -101.542849 45 10501ft 235kts
11-Aug-17 07:40 35.404434 -101.510377 333 12105ft 239kts
11-Aug-17 07:41 35.420287 -101.577049 261 13751ft 236kts
11-Aug-17 07:42 35.411768 -101.653101 262 15291ft 239kts
11-Aug-17 07:43 35.403150 -101.730281 262 16696ft 240kts
11-Aug-17 07:44 35.394073 -101.811515 262 17699ft 248kts
11-Aug-17 07:45 35.385042 -101.892221 262 18809ft 248kts
11-Aug-17 07:46 35.376121 -101.972553 262 19724ft 251kts
11-Aug-17 07:47 35.366805 -102.056332 262 20276ft 263kts
11-Aug-17 07:48 35.357093 -102.142273 262 20316ft 284kts
11-Aug-17 07:49 35.346501 -102.235279 262 20317ft 298kts
11-Aug-17 07:50 35.335341 -102.332577 260 20320ft 307kts
11-Aug-17 07:51 35.323539 -102.435230 261 20329ft 312kts
11-Aug-17 07:52 35.311813 -102.535877 261 20329ft 314kts
11-Aug-17 07:53 35.300172 -102.634959 261 20331ft 315kts
11-Aug-17 07:54 35.288175 -102.736230 261 20329ft 315kts
11-Aug-17 07:55 35.276120 -102.837499 261 20328ft 316kts
11-Aug-17 07:56 35.263647 -102.941342 261 20325ft 317kts
11-Aug-17 07:57 35.251529 -103.041470 261 20322ft 318kts
11-Aug-17 07:58 35.239690 -103.138409 260 20317ft 318kts
11-Aug-17 07:59 35.227745 -103.235666 260 20314ft 318kts
11-Aug-17 08:00 35.215652 -103.333261 260 20312ft 319kts
11-Aug-17 08:01 35.203230 -103.432479 260 20306ft 319kts
11-Aug-17 08:02 35.190478 -103.533631 260 20304ft 319kts
11-Aug-17 08:03 35.179822 -103.636937 266 20303ft 320kts
11-Aug-17 08:04 35.176072 -103.741236 266 20303ft 320kts
11-Aug-17 08:05 35.171523 -103.845656 265 20323ft 321kts
11-Aug-17 08:06 35.166716 -103.950601 265 20330ft 322kts
11-Aug-17 08:07 35.162198 -104.049814 265 20338ft 322kts
11-Aug-17 08:08 35.157300 -104.152592 265 20347ft 323kts
11-Aug-17 08:09 35.152350 -104.254999 265 20358ft 323kts
11-Aug-17 08:10 35.147132 -104.361486 265 20370ft 324kts
11-Aug-17 08:11 35.141734 -104.470136 265 20383ft 324kts
11-Aug-17 08:12 35.136212 -104.578661 264 20395ft 324kts
11-Aug-17 08:13 35.130546 -104.688431 264 20407ft 325kts
11-Aug-17 08:14 35.124749 -104.798906 264 20417ft 325kts
11-Aug-17 08:15 35.118876 -104.908925 264 20426ft 326kts
11-Aug-17 08:16 35.112905 -105.018609 264 20433ft 326kts
11-Aug-17 08:17 35.100168 -105.127078 258 20439ft 325kts
11-Aug-17 08:18 35.084327 -105.235432 258 20444ft 324kts
11-Aug-17 08:19 35.069112 -105.343482 258 20448ft 324kts
11-Aug-17 08:20 35.053554 -105.452311 258 20451ft 324kts
11-Aug-17 08:21 35.038069 -105.560123 258 20455ft 325kts
11-Aug-17 08:22 35.022578 -105.667231 258 20458ft 325kts
11-Aug-17 08:23 35.006924 -105.774913 258 20455ft 325kts
11-Aug-17 08:24 34.990939 -105.883994 258 20433ft 326kts
11-Aug-17 08:25 34.975092 -105.991563 258 20422ft 323kts
11-Aug-17 08:26 34.959256 -106.099374 258 20410ft 325kts
11-Aug-17 08:27 34.968811 -106.207682 277 20296ft 328kts
11-Aug-17 08:28 34.982398 -106.315112 275 18384ft 321kts
11-Aug-17 08:29 34.995179 -106.419537 275 16513ft 312kts
11-Aug-17 08:30 35.007663 -106.521466 276 14638ft 304kts
11-Aug-17 08:31 35.019745 -106.619596 276 12784ft 296kts
11-Aug-17 08:32 35.030710 -106.715688 267 10922ft 289kts
11-Aug-17 08:33 34.997757 -106.801078 238 9041ft 282kts
11-Aug-17 08:34 34.960382 -106.880526 238 8058ft 259kts
11-Aug-17 08:35 34.950169 -106.957293 309 8023ft 241kts
11-Aug-17 08:36 35.005601 -106.950805 48 8037ft 225kts
11-Aug-17 08:37 35.045188 -106.892276 66 8034ft 221kts
11-Aug-17 08:38 35.050290 -106.823147 97 8035ft 197kts
11-Aug-17 08:39 35.046149 -106.763523 93 7658ft 180kts
11-Aug-17 08:40 35.044960 -106.709061 91 6752ft 142kts
11-Aug-17 08:41 35.044686 -106.662435 90 6040ft 142kts
11-Aug-17 08:42 35.044430 -106.617461 88 5357ft 128kts
11-Aug-17 08:43 35.044279 -106.600014 91 5320ft 22kts

Navigation Log

Ident Type
Flight plan parsing failed, navigation log unavailable